Time;durP1;ratioP1;P1;durP2;ratioP2;P2;SDS_P1;SDS_P2;PMS_P1;PMS_P2;Temp;Humidity;BMP_temperature;BMP_pressure;BME280_temperature;BME280_humidity;BME280_pressure;Samples;Min_cycle;Max_cycle;Signal;HPM_P1;HPM_P2
2021/09/16 00:00:52;;;;;;;8.15;6.97;;;;;;;;;;5026454;28;20104;-72
2021/09/16 00:03:19;;;;;;;7.47;6.68;;;;;;;;;;5026772;28;20104;-71
2021/09/16 00:05:45;;;;;;;9.20;6.65;;;;;;;;;;5013212;28;20112;-71
2021/09/16 00:08:11;;;;;;;8.30;7.22;;;;;;;;;;5021518;28;20026;-73
2021/09/16 00:10:37;;;;;;;7.95;7.15;;;;;;;;;;5023119;28;20029;-72
2021/09/16 00:13:03;;;;;;;10.02;7.10;;;;;;;;;;5026354;28;20036;-72
2021/09/16 00:15:29;;;;;;;7.45;6.68;;;;;;;;;;5026880;28;20034;-72
2021/09/16 00:17:55;;;;;;;7.53;6.82;;;;;;;;;;5025224;28;20025;-78
2021/09/16 00:20:22;;;;;;;8.48;7.30;;;;;;;;;;5027181;28;20037;-73
2021/09/16 00:22:48;;;;;;;8.10;7.30;;;;;;;;;;5026331;28;20032;-72
2021/09/16 00:25:14;;;;;;;7.50;6.80;;;;;;;;;;5022590;28;20034;-73
2021/09/16 00:27:40;;;;;;;9.65;7.25;;;;;;;;;;5021953;28;20055;-72
2021/09/16 00:30:06;;;;;;;8.13;7.10;;;;;;;;;;5009065;28;20040;-72
2021/09/16 00:32:33;;;;;;;7.55;6.82;;;;;;;;;;5007896;28;20021;-77
2021/09/16 00:34:59;;;;;;;8.57;6.90;;;;;;;;;;5025824;28;20037;-75
2021/09/16 00:37:25;;;;;;;7.50;6.57;;;;;;;;;;5016112;28;20071;-71
2021/09/16 00:39:51;;;;;;;7.90;7.10;;;;;;;;;;5021321;28;20028;-71
2021/09/16 00:42:18;;;;;;;7.45;6.75;;;;;;;;;;5008839;28;20115;-72
2021/09/16 00:44:44;;;;;;;7.13;6.43;;;;;;;;;;5026102;28;20132;-71
2021/09/16 00:47:10;;;;;;;7.57;6.55;;;;;;;;;;5026268;28;20065;-71
2021/09/16 00:49:37;;;;;;;7.82;6.72;;;;;;;;;;5026840;28;20021;-72
2021/09/16 00:52:03;;;;;;;8.57;6.60;;;;;;;;;;5025149;28;20029;-74
2021/09/16 00:54:32;;;;;;;7.53;6.82;;;;;;;;;;5026540;28;20029;-72
2021/09/16 00:56:59;;;;;;;7.68;6.88;;;;;;;;;;5026809;28;20489;-71
2021/09/16 00:59:25;;;;;;;8.13;7.32;;;;;;;;;;5026733;28;20045;-75
2021/09/16 01:01:51;;;;;;;9.43;7.78;;;;;;;;;;5025097;28;20488;-73
2021/09/16 01:04:18;;;;;;;8.70;7.90;;;;;;;;;;5026443;28;20491;-74
2021/09/16 01:06:44;;;;;;;8.52;7.75;;;;;;;;;;5026636;28;20121;-72
2021/09/16 01:09:11;;;;;;;8.88;7.90;;;;;;;;;;5026593;28;20037;-72
2021/09/16 01:11:37;;;;;;;8.65;7.85;;;;;;;;;;5024892;28;20389;-71
2021/09/16 01:14:03;;;;;;;10.40;7.22;;;;;;;;;;5026327;28;20366;-78
2021/09/16 01:16:30;;;;;;;7.93;6.97;;;;;;;;;;5026119;28;20036;-71
2021/09/16 01:18:56;;;;;;;7.85;6.97;;;;;;;;;;5026635;28;20021;-72
2021/09/16 01:21:22;;;;;;;7.97;7.07;;;;;;;;;;5026685;28;20025;-74
2021/09/16 01:23:51;;;;;;;8.50;7.57;;;;;;;;;;5020152;28;20029;-72
2021/09/16 01:26:18;;;;;;;8.75;7.85;;;;;;;;;;5017664;28;20037;-72
2021/09/16 01:28:44;;;;;;;8.60;7.65;;;;;;;;;;5023361;28;20646;-73
2021/09/16 01:31:10;;;;;;;8.60;7.65;;;;;;;;;;5015239;28;20547;-74
2021/09/16 01:33:36;;;;;;;12.50;7.38;;;;;;;;;;5017509;28;20026;-73
2021/09/16 01:36:08;;;;;;;9.10;7.57;;;;;;;;;;5004215;28;20724;-72
2021/09/16 01:38:34;;;;;;;;;;;;;;;;;;5020748;28;20083;-74
2021/09/16 01:41:00;;;;;;;7.90;7.13;;;;;;;;;;5019421;28;19909;-72
2021/09/16 01:43:26;;;;;;;8.68;7.38;;;;;;;;;;5019840;28;20037;-73
2021/09/16 01:45:52;;;;;;;10.65;7.63;;;;;;;;;;5021100;28;20072;-73
2021/09/16 01:48:18;;;;;;;8.85;7.95;;;;;;;;;;5021274;28;20033;-76
2021/09/16 01:50:46;;;;;;;9.13;8.20;;;;;;;;;;5021701;28;20582;-73
2021/09/16 01:53:13;;;;;;;10.25;7.63;;;;;;;;;;5021176;28;20553;-73
2021/09/16 01:55:39;;;;;;;9.32;7.80;;;;;;;;;;5020074;28;20761;-72
2021/09/16 01:58:05;;;;;;;8.55;7.68;;;;;;;;;;5024259;28;20489;-73
2021/09/16 02:00:31;;;;;;;8.68;7.88;;;;;;;;;;5014010;28;20034;-73
2021/09/16 02:02:57;;;;;;;8.93;7.57;;;;;;;;;;5004577;28;20037;-72
2021/09/16 02:05:23;;;;;;;9.77;7.60;;;;;;;;;;5005508;28;20038;-72
2021/09/16 02:07:49;;;;;;;7.88;7.07;;;;;;;;;;5005374;28;20536;-73
2021/09/16 02:10:16;;;;;;;9.88;7.82;;;;;;;;;;5024175;28;20047;-73
2021/09/16 02:12:42;;;;;;;8.90;7.20;;;;;;;;;;5005441;28;20068;-72
2021/09/16 02:15:08;;;;;;;8.25;7.50;;;;;;;;;;5005065;28;20022;-73
2021/09/16 02:17:34;;;;;;;8.35;7.55;;;;;;;;;;5006999;28;20428;-73
2021/09/16 02:20:02;;;;;;;8.68;7.28;;;;;;;;;;5023616;28;20132;-73
2021/09/16 02:22:28;;;;;;;9.48;7.60;;;;;;;;;;5022868;28;20056;-73
2021/09/16 02:24:54;;;;;;;9.68;8.35;;;;;;;;;;5024824;28;20054;-73
2021/09/16 02:27:20;;;;;;;8.52;7.70;;;;;;;;;;5024621;28;20041;-73
2021/09/16 02:29:46;;;;;;;7.63;6.53;;;;;;;;;;5023084;28;20029;-74
2021/09/16 02:32:12;;;;;;;7.88;7.07;;;;;;;;;;5006543;28;20669;-73
2021/09/16 02:34:39;;;;;;;7.55;6.50;;;;;;;;;;5024226;28;20095;-74
2021/09/16 02:37:05;;;;;;;7.78;6.90;;;;;;;;;;5023973;28;20040;-75
2021/09/16 02:39:31;;;;;;;7.25;6.55;;;;;;;;;;5023977;28;20040;-77
2021/09/16 02:41:57;;;;;;;7.45;6.68;;;;;;;;;;5021078;28;20033;-73
2021/09/16 02:44:23;;;;;;;7.45;6.75;;;;;;;;;;5025929;28;20033;-75
2021/09/16 02:46:50;;;;;;;7.55;6.78;;;;;;;;;;5008676;28;20049;-75
2021/09/16 02:49:16;;;;;;;6.85;6.13;;;;;;;;;;5024945;28;20037;-75
2021/09/16 02:51:42;;;;;;;7.68;6.80;;;;;;;;;;5023844;28;20034;-76
2021/09/16 02:54:08;;;;;;;7.72;6.60;;;;;;;;;;5006646;28;20030;-74
2021/09/16 02:56:34;;;;;;;7.43;6.65;;;;;;;;;;4989375;28;20033;-72
2021/09/16 02:59:00;;;;;;;8.23;6.35;;;;;;;;;;5005259;28;20026;-72
2021/09/16 03:01:26;;;;;;;9.07;6.50;;;;;;;;;;4988918;28;20075;-78
2021/09/16 03:03:53;;;;;;;7.30;6.60;;;;;;;;;;5020824;28;20373;-76
2021/09/16 03:06:19;;;;;;;8.00;6.70;;;;;;;;;;5023739;28;20198;-78
2021/09/16 03:08:45;;;;;;;8.60;6.93;;;;;;;;;;5022129;28;20056;-78
2021/09/16 03:11:11;;;;;;;7.75;6.05;;;;;;;;;;5005047;28;20137;-77
2021/09/16 03:13:38;;;;;;;6.80;6.10;;;;;;;;;;5023365;28;20037;-74
2021/09/16 03:16:04;;;;;;;7.60;6.90;;;;;;;;;;5023599;28;20041;-77
2021/09/16 03:18:30;;;;;;;8.00;6.80;;;;;;;;;;5017262;28;20690;-76
2021/09/16 03:20:56;;;;;;;7.45;6.68;;;;;;;;;;5009710;28;20465;-78
2021/09/16 03:23:22;;;;;;;7.07;6.38;;;;;;;;;;5021132;28;20496;-73
2021/09/16 03:25:48;;;;;;;6.90;6.22;;;;;;;;;;5019763;28;20034;-74
2021/09/16 03:28:15;;;;;;;7.47;6.65;;;;;;;;;;5021711;28;20033;-73
2021/09/16 03:30:41;;;;;;;7.50;6.22;;;;;;;;;;5021146;28;20032;-74
2021/09/16 03:33:07;;;;;;;6.78;6.18;;;;;;;;;;5021396;28;20041;-73
2021/09/16 03:35:33;;;;;;;8.75;7.10;;;;;;;;;;5019594;28;20032;-75
2021/09/16 03:37:59;;;;;;;6.90;6.20;;;;;;;;;;5020728;28;20025;-75
2021/09/16 03:40:26;;;;;;;6.93;6.30;;;;;;;;;;5020761;28;20025;-74
2021/09/16 03:42:52;;;;;;;7.43;6.70;;;;;;;;;;5020517;28;20087;-72
2021/09/16 03:45:19;;;;;;;7.60;6.85;;;;;;;;;;5021149;28;20055;-73
2021/09/16 03:47:45;;;;;;;8.27;6.72;;;;;;;;;;5019773;28;20123;-72
2021/09/16 03:50:12;;;;;;;9.35;6.85;;;;;;;;;;5020514;28;20636;-72
2021/09/16 03:52:38;;;;;;;6.78;6.18;;;;;;;;;;5023086;28;20025;-72
2021/09/16 03:55:05;;;;;;;8.10;6.93;;;;;;;;;;5023363;28;20499;-72
2021/09/16 03:57:31;;;;;;;7.40;6.40;;;;;;;;;;5022770;28;20033;-72
2021/09/16 03:59:57;;;;;;;7.80;6.72;;;;;;;;;;5016457;28;20022;-73
2021/09/16 04:02:24;;;;;;;8.80;6.03;;;;;;;;;;5001265;28;20041;-73
2021/09/16 04:04:50;;;;;;;10.30;6.63;;;;;;;;;;5003182;28;20021;-71
2021/09/16 04:07:16;;;;;;;9.73;6.43;;;;;;;;;;5003259;28;20041;-71
2021/09/16 04:09:42;;;;;;;7.40;6.68;;;;;;;;;;5015289;28;20026;-71
2021/09/16 04:12:08;;;;;;;7.15;6.22;;;;;;;;;;5020715;28;20021;-71
2021/09/16 04:14:34;;;;;;;12.10;7.00;;;;;;;;;;5022691;28;20529;-71
2021/09/16 04:17:00;;;;;;;8.23;7.10;;;;;;;;;;5022717;28;20654;-72
2021/09/16 04:19:27;;;;;;;7.30;6.07;;;;;;;;;;5020149;28;20238;-72
2021/09/16 04:21:53;;;;;;;6.93;6.22;;;;;;;;;;5022265;28;20041;-72
2021/09/16 04:24:19;;;;;;;7.82;6.88;;;;;;;;;;5022168;28;20025;-71
2021/09/16 04:26:45;;;;;;;7.35;6.68;;;;;;;;;;5022545;28;20035;-71
2021/09/16 04:29:12;;;;;;;7.88;6.72;;;;;;;;;;5022581;28;20024;-71
2021/09/16 04:31:39;;;;;;;6.30;5.38;;;;;;;;;;5021866;28;20022;-71
2021/09/16 04:34:05;;;;;;;6.93;6.15;;;;;;;;;;5021229;28;20512;-75
2021/09/16 04:36:32;;;;;;;9.93;7.20;;;;;;;;;;5022223;28;20041;-71
2021/09/16 04:38:58;;;;;;;7.10;6.38;;;;;;;;;;5022449;28;20099;-71
2021/09/16 04:41:24;;;;;;;8.18;6.80;;;;;;;;;;5004163;28;20030;-71
2021/09/16 04:43:50;;;;;;;7.63;6.90;;;;;;;;;;5021973;28;20520;-72
2021/09/16 04:46:16;;;;;;;8.38;6.75;;;;;;;;;;5022059;28;20049;-71
2021/09/16 04:48:43;;;;;;;7.15;6.45;;;;;;;;;;5020791;28;20029;-72
2021/09/16 04:51:09;;;;;;;8.63;7.20;;;;;;;;;;5022179;28;20025;-72
2021/09/16 04:53:35;;;;;;;9.13;7.78;;;;;;;;;;5004676;28;20038;-72
2021/09/16 04:56:01;;;;;;;7.97;6.88;;;;;;;;;;5022221;28;20033;-71
2021/09/16 04:58:27;;;;;;;9.15;7.50;;;;;;;;;;5020138;28;20060;-71
2021/09/16 05:00:53;;;;;;;8.32;7.53;;;;;;;;;;5019744;28;20055;-70
2021/09/16 05:03:19;;;;;;;8.15;7.35;;;;;;;;;;5015363;28;20036;-71
2021/09/16 05:05:46;;;;;;;8.57;7.75;;;;;;;;;;5019693;28;20033;-70
2021/09/16 05:08:13;;;;;;;9.00;7.65;;;;;;;;;;5004033;28;20473;-70
2021/09/16 05:10:40;;;;;;;8.82;8.02;;;;;;;;;;5020984;28;20022;-70
2021/09/16 05:13:06;;;;;;;9.18;7.13;;;;;;;;;;5019545;28;20040;-70
2021/09/16 05:15:32;;;;;;;8.73;7.85;;;;;;;;;;5004573;28;20495;-70
2021/09/16 05:17:59;;;;;;;8.25;7.43;;;;;;;;;;5021518;28;20071;-70
2021/09/16 05:20:25;;;;;;;7.78;7.07;;;;;;;;;;5021251;28;20025;-70
2021/09/16 05:22:51;;;;;;;9.23;7.57;;;;;;;;;;5021306;28;20026;-71
2021/09/16 05:25:17;;;;;;;8.10;7.30;;;;;;;;;;5021338;28;20032;-71
2021/09/16 05:27:44;;;;;;;8.32;7.53;;;;;;;;;;5019889;28;20063;-71
2021/09/16 05:30:10;;;;;;;8.73;7.93;;;;;;;;;;5021411;28;20036;-71
2021/09/16 05:32:38;;;;;;;9.45;8.25;;;;;;;;;;5023263;28;20025;-70
2021/09/16 05:35:05;;;;;;;18.73;9.02;;;;;;;;;;5024715;28;20088;-70
2021/09/16 05:37:31;;;;;;;10.57;8.75;;;;;;;;;;5025154;28;20026;-71
2021/09/16 05:39:57;;;;;;;9.43;8.52;;;;;;;;;;5023295;28;20026;-70
2021/09/16 05:42:25;;;;;;;9.50;8.43;;;;;;;;;;5024455;28;20029;-71
2021/09/16 05:44:52;;;;;;;11.55;8.73;;;;;;;;;;5024554;28;20042;-70
2021/09/16 05:47:18;;;;;;;12.93;8.85;;;;;;;;;;5024348;28;20037;-71
2021/09/16 05:49:44;;;;;;;13.25;9.27;;;;;;;;;;5023884;28;20037;-70
2021/09/16 05:52:10;;;;;;;9.50;8.60;;;;;;;;;;5023989;28;20069;-70
2021/09/16 05:54:37;;;;;;;9.88;8.98;;;;;;;;;;5021665;28;20037;-76
2021/09/16 05:57:04;;;;;;;10.27;9.27;;;;;;;;;;5019691;28;20033;-71
2021/09/16 05:59:30;;;;;;;10.13;9.07;;;;;;;;;;5021704;28;20029;-72
2021/09/16 06:01:57;;;;;;;10.50;8.57;;;;;;;;;;5021349;28;20026;-75
2021/09/16 06:04:24;;;;;;;9.75;8.77;;;;;;;;;;5022012;28;21036;-71
2021/09/16 06:06:50;;;;;;;11.35;9.30;;;;;;;;;;5002917;28;20467;-74
2021/09/16 06:09:17;;;;;;;9.75;8.70;;;;;;;;;;5021277;28;20022;-73
2021/09/16 06:11:43;;;;;;;8.82;8.02;;;;;;;;;;5021629;28;20120;-72
2021/09/16 06:14:09;;;;;;;8.00;7.20;;;;;;;;;;5021007;28;20044;-72
2021/09/16 06:16:35;;;;;;;9.60;8.60;;;;;;;;;;5021513;28;20025;-75
2021/09/16 06:19:02;;;;;;;10.20;9.23;;;;;;;;;;5019425;28;20103;-72
2021/09/16 06:21:28;;;;;;;10.02;9.05;;;;;;;;;;5019102;28;20040;-72
2021/09/16 06:23:54;;;;;;;9.65;8.65;;;;;;;;;;5020318;28;20022;-71
2021/09/16 06:26:21;;;;;;;10.75;8.63;;;;;;;;;;5020636;28;20088;-74
2021/09/16 06:28:47;;;;;;;9.43;8.48;;;;;;;;;;5021109;28;20052;-72
2021/09/16 06:31:14;;;;;;;9.10;8.20;;;;;;;;;;5020717;28;20104;-74
2021/09/16 06:33:40;;;;;;;9.95;8.05;;;;;;;;;;5018745;28;20033;-74
2021/09/16 06:36:06;;;;;;;9.25;8.32;;;;;;;;;;5020792;28;20410;-71
2021/09/16 06:38:32;;;;;;;10.93;9.73;;;;;;;;;;5021397;28;20014;-71
2021/09/16 06:40:59;;;;;;;11.07;9.75;;;;;;;;;;5016731;28;20029;-71
2021/09/16 06:43:25;;;;;;;11.40;8.25;;;;;;;;;;5001375;28;20040;-74
2021/09/16 06:45:51;;;;;;;9.93;8.93;;;;;;;;;;5020219;28;20181;-71
2021/09/16 06:48:17;;;;;;;8.80;7.90;;;;;;;;;;5021456;28;20033;-72
2021/09/16 06:50:44;;;;;;;11.63;9.07;;;;;;;;;;5021551;28;20061;-72
2021/09/16 06:53:10;;;;;;;10.00;9.00;;;;;;;;;;5021669;28;20025;-71
2021/09/16 06:55:36;;;;;;;9.07;8.18;;;;;;;;;;5019680;28;20129;-73
2021/09/16 06:58:03;;;;;;;9.93;8.75;;;;;;;;;;5011718;28;20333;-71
2021/09/16 07:00:30;;;;;;;8.85;7.90;;;;;;;;;;5001427;28;20375;-73
2021/09/16 07:02:56;;;;;;;8.48;7.68;;;;;;;;;;5001792;28;20049;-72
2021/09/16 07:05:23;;;;;;;9.68;7.47;;;;;;;;;;5008627;28;20028;-71
2021/09/16 07:07:49;;;;;;;8.75;7.22;;;;;;;;;;5020198;28;20044;-76
2021/09/16 07:10:15;;;;;;;9.15;8.25;;;;;;;;;;5018912;28;20025;-71
2021/09/16 07:12:41;;;;;;;9.75;7.93;;;;;;;;;;5020725;28;20026;-71
2021/09/16 07:15:08;;;;;;;10.85;8.18;;;;;;;;;;5002740;28;20090;-72
2021/09/16 07:17:34;;;;;;;10.23;6.90;;;;;;;;;;5020055;28;20033;-74
2021/09/16 07:20:01;;;;;;;8.38;7.40;;;;;;;;;;5019237;28;20049;-75
2021/09/16 07:22:27;;;;;;;7.50;6.80;;;;;;;;;;5019793;28;20025;-71
2021/09/16 07:24:53;;;;;;;7.78;7.07;;;;;;;;;;5017960;28;20033;-71
2021/09/16 07:27:19;;;;;;;7.63;6.93;;;;;;;;;;5018677;28;20037;-76
2021/09/16 07:29:46;;;;;;;7.90;7.10;;;;;;;;;;5019292;28;20026;-71
2021/09/16 07:32:12;;;;;;;9.35;7.45;;;;;;;;;;5019777;28;20465;-71
2021/09/16 07:34:39;;;;;;;8.75;7.65;;;;;;;;;;5019870;28;20025;-76
2021/09/16 07:37:05;;;;;;;10.30;9.20;;;;;;;;;;5012594;28;20105;-75
2021/09/16 07:39:32;;;;;;;13.48;8.90;;;;;;;;;;5000713;28;20725;-73
2021/09/16 07:41:58;;;;;;;8.82;8.02;;;;;;;;;;5005302;28;20030;-72
2021/09/16 07:44:25;;;;;;;10.48;8.00;;;;;;;;;;5002620;28;20076;-71
2021/09/16 07:46:51;;;;;;;9.48;8.57;;;;;;;;;;5018128;28;20041;-70
2021/09/16 07:49:17;;;;;;;13.35;8.48;;;;;;;;;;5022014;28;20048;-72
2021/09/16 07:51:43;;;;;;;9.10;8.10;;;;;;;;;;5022203;28;20546;-72
2021/09/16 07:54:11;;;;;;;9.30;8.40;;;;;;;;;;5021145;28;20437;-71
2021/09/16 07:56:39;;;;;;;10.82;8.07;;;;;;;;;;5020291;28;20071;-71
2021/09/16 07:59:05;;;;;;;11.57;8.60;;;;;;;;;;5021607;28;20029;-71
2021/09/16 08:01:32;;;;;;;11.75;9.25;;;;;;;;;;5021668;28;20064;-71
2021/09/16 08:03:58;;;;;;;8.70;7.90;;;;;;;;;;5004108;28;20022;-71
2021/09/16 08:06:24;;;;;;;9.07;8.27;;;;;;;;;;5020295;28;20033;-71
2021/09/16 08:08:51;;;;;;;10.05;8.57;;;;;;;;;;5021397;28;20025;-72
2021/09/16 08:11:17;;;;;;;8.45;7.55;;;;;;;;;;5019576;28;20125;-71
2021/09/16 08:13:43;;;;;;;8.25;7.32;;;;;;;;;;5014985;28;20026;-72
2021/09/16 08:16:09;;;;;;;8.20;7.15;;;;;;;;;;5021458;28;20411;-76
2021/09/16 08:18:37;;;;;;;9.02;7.40;;;;;;;;;;5019441;28;20056;-73
2021/09/16 08:21:04;;;;;;;9.15;7.30;;;;;;;;;;5019098;28;20017;-73
2021/09/16 08:23:31;;;;;;;10.00;7.88;;;;;;;;;;4997859;28;20019;-73
2021/09/16 08:25:57;;;;;;;10.60;7.97;;;;;;;;;;5012516;28;20397;-71
2021/09/16 08:28:23;;;;;;;10.43;7.78;;;;;;;;;;5019478;28;20029;-72
2021/09/16 08:30:50;;;;;;;8.27;7.22;;;;;;;;;;5021371;28;20029;-72
2021/09/16 08:33:17;;;;;;;8.77;7.93;;;;;;;;;;5021354;28;20548;-72
2021/09/16 08:35:43;;;;;;;8.45;7.47;;;;;;;;;;5021565;28;20045;-73
2021/09/16 08:38:09;;;;;;;9.02;8.13;;;;;;;;;;5022375;28;20036;-75
2021/09/16 08:40:36;;;;;;;10.65;7.82;;;;;;;;;;5021127;28;20021;-72
2021/09/16 08:43:02;;;;;;;12.00;7.85;;;;;;;;;;5018956;28;20765;-72
2021/09/16 08:45:28;;;;;;;9.45;7.82;;;;;;;;;;5017775;28;20608;-73
2021/09/16 08:47:55;;;;;;;8.63;7.70;;;;;;;;;;5021427;28;20033;-72
2021/09/16 08:50:23;;;;;;;9.73;7.50;;;;;;;;;;5021562;28;20026;-73
2021/09/16 08:52:50;;;;;;;10.30;7.50;;;;;;;;;;5021189;28;20049;-72
2021/09/16 08:55:18;;;;;;;10.25;7.97;;;;;;;;;;5019865;28;20090;-71
2021/09/16 08:57:46;;;;;;;11.25;8.30;;;;;;;;;;5021452;28;20022;-72
2021/09/16 09:00:17;;;;;;;8.93;8.05;;;;;;;;;;5021249;28;20053;-71
2021/09/16 09:02:47;;;;;;;9.33;7.60;;;;;;;;;;5021210;28;20029;-71
2021/09/16 09:05:14;;;;;;;8.40;7.57;;;;;;;;;;5020793;28;20312;-71
2021/09/16 09:07:41;;;;;;;8.75;7.85;;;;;;;;;;5025686;28;20060;-71
2021/09/16 09:10:12;;;;;;;8.48;7.68;;;;;;;;;;5024728;28;20021;-72
2021/09/16 09:12:39;;;;;;;8.37;7.30;;;;;;;;;;5025460;28;20029;-72
2021/09/16 09:15:07;;;;;;;9.20;7.90;;;;;;;;;;5025403;28;20815;-73
2021/09/16 09:17:34;;;;;;;9.63;7.88;;;;;;;;;;5025418;28;20484;-71
2021/09/16 09:20:06;;;;;;;8.57;7.78;;;;;;;;;;5025907;28;20684;-71
2021/09/16 09:22:35;;;;;;;10.25;7.95;;;;;;;;;;5023967;28;20032;-72
2021/09/16 09:25:05;;;;;;;8.38;7.57;;;;;;;;;;5025326;28;20037;-73
2021/09/16 09:27:34;;;;;;;10.43;8.05;;;;;;;;;;5045110;28;20477;-72
2021/09/16 09:30:03;;;;;;;8.32;7.53;;;;;;;;;;5044984;28;20111;-72
2021/09/16 09:32:44;;;;;;;10.75;8.43;;;;;;;;;;5043046;28;20119;-72
2021/09/16 09:35:25;;;;;;;10.82;7.70;;;;;;;;;;5032122;28;20040;-72
2021/09/16 09:37:51;;;;;;;9.68;7.88;;;;;;;;;;5020732;28;20330;-72
2021/09/16 09:40:25;;;;;;;9.27;8.35;;;;;;;;;;5023384;28;20124;-72
2021/09/16 09:42:51;;;;;;;12.05;7.03;;;;;;;;;;5023524;28;20057;-73
2021/09/16 09:45:17;;;;;;;9.52;7.80;;;;;;;;;;5023126;28;20192;-75
2021/09/16 09:47:45;;;;;;;10.00;7.90;;;;;;;;;;5024868;28;20432;-74
2021/09/16 09:50:25;;;;;;;8.88;7.82;;;;;;;;;;5023261;28;20026;-72
2021/09/16 09:52:52;;;;;;;9.55;8.02;;;;;;;;;;5025142;28;20029;-72
2021/09/16 09:55:20;;;;;;;9.30;7.88;;;;;;;;;;5007502;28;20029;-72
2021/09/16 09:57:46;;;;;;;8.52;7.60;;;;;;;;;;5007412;28;20022;-72
2021/09/16 10:00:15;;;;;;;7.90;7.18;;;;;;;;;;5023284;28;20603;-72
2021/09/16 10:02:54;;;;;;;8.57;7.43;;;;;;;;;;5024612;28;20503;-72
2021/09/16 10:05:20;;;;;;;7.72;7.00;;;;;;;;;;5024870;28;20028;-72
2021/09/16 10:07:47;;;;;;;10.02;7.70;;;;;;;;;;5024550;28;20174;-72
2021/09/16 10:10:14;;;;;;;12.75;8.35;;;;;;;;;;5024330;28;20021;-71
2021/09/16 10:12:41;;;;;;;11.73;9.30;;;;;;;;;;5024602;28;20037;-71
2021/09/16 10:15:09;;;;;;;9.50;8.30;;;;;;;;;;5023140;28;20024;-71
2021/09/16 10:17:36;;;;;;;8.60;7.70;;;;;;;;;;5023820;28;20021;-71
2021/09/16 10:20:03;;;;;;;8.65;7.63;;;;;;;;;;5006674;28;20424;-71
2021/09/16 10:22:30;;;;;;;8.32;7.53;;;;;;;;;;5024286;28;20076;-74
2021/09/16 10:24:56;;;;;;;8.70;7.07;;;;;;;;;;5022782;28;20037;-71
2021/09/16 10:27:41;;;;;;;8.38;6.88;;;;;;;;;;5024427;28;20069;-72
2021/09/16 10:30:28;;;;;;;7.78;7.07;;;;;;;;;;5023772;28;20439;-72
2021/09/16 10:33:00;;;;;;;10.98;7.00;;;;;;;;;;5023771;28;20106;-72
2021/09/16 10:35:26;;;;;;;9.50;6.10;;;;;;;;;;5023864;28;20033;-71
2021/09/16 10:37:53;;;;;;;7.15;6.45;;;;;;;;;;5023915;28;20064;-71
2021/09/16 10:40:30;;;;;;;7.47;6.50;;;;;;;;;;5023664;28;20017;-71
2021/09/16 10:42:58;;;;;;;7.63;6.38;;;;;;;;;;5023098;28;20104;-72
2021/09/16 10:45:30;;;;;;;6.97;6.35;;;;;;;;;;5029320;28;20057;-72
2021/09/16 10:47:56;;;;;;;;;;;;;;;;;;5043343;28;20037;-71
2021/09/16 10:50:22;;;;;;;8.05;7.07;;;;;;;;;;5030565;28;19916;-72
2021/09/16 10:52:48;;;;;;;7.63;6.65;;;;;;;;;;5023475;28;20067;-72
2021/09/16 10:55:34;;;;;;;9.40;6.93;;;;;;;;;;5023275;28;20029;-72
2021/09/16 10:58:21;;;;;;;7.13;6.43;;;;;;;;;;5023034;28;20041;-73
2021/09/16 11:00:47;;;;;;;7.03;6.32;;;;;;;;;;5023584;28;20026;-73
2021/09/16 11:03:14;;;;;;;7.72;6.55;;;;;;;;;;5039177;28;20032;-72
2021/09/16 11:05:46;;;;;;;7.47;6.68;;;;;;;;;;5043116;28;20017;-73
2021/09/16 11:08:12;;;;;;;;;;;;;;;;;;5042860;28;20041;-72
2021/09/16 11:10:38;;;;;;;7.07;6.25;;;;;;;;;;5023054;28;19913;-73
2021/09/16 11:13:25;;;;;;;8.05;6.53;;;;;;;;;;5023075;28;20574;-72
2021/09/16 11:15:54;;;;;;;5.40;4.90;;;;;;;;;;5001864;28;20037;-73
2021/09/16 11:18:21;;;;;;;6.10;5.60;;;;;;;;;;5002678;28;20075;-73
2021/09/16 11:20:49;;;;;;;6.68;6.00;;;;;;;;;;5003263;28;20026;-73
2021/09/16 11:23:17;;;;;;;8.93;6.45;;;;;;;;;;5002865;28;20022;-72
2021/09/16 11:25:45;;;;;;;9.95;6.15;;;;;;;;;;5003060;28;20021;-73
2021/09/16 11:28:12;;;;;;;7.03;6.18;;;;;;;;;;5003053;28;20068;-73
2021/09/16 11:30:39;;;;;;;6.68;5.78;;;;;;;;;;5000106;28;20029;-73
2021/09/16 11:33:09;;;;;;;7.07;6.20;;;;;;;;;;5002953;28;20053;-72
2021/09/16 11:35:36;;;;;;;6.57;5.97;;;;;;;;;;5017364;28;20509;-73
2021/09/16 11:38:03;;;;;;;6.90;6.18;;;;;;;;;;5025898;28;20017;-73
2021/09/16 11:40:30;;;;;;;6.72;6.03;;;;;;;;;;5026393;28;20641;-76
2021/09/16 11:42:59;;;;;;;7.07;6.00;;;;;;;;;;5022208;28;20556;-73
2021/09/16 11:45:28;;;;;;;6.15;5.50;;;;;;;;;;5020451;28;20053;-73
2021/09/16 11:48:05;;;;;;;6.95;6.05;;;;;;;;;;5021980;28;20700;-73
2021/09/16 11:50:43;;;;;;;6.30;5.80;;;;;;;;;;5022127;28;20026;-72
2021/09/16 11:53:11;;;;;;;6.00;5.50;;;;;;;;;;5020744;28;20021;-73
2021/09/16 11:55:44;;;;;;;7.93;6.63;;;;;;;;;;5022443;28;20045;-73
2021/09/16 11:58:12;;;;;;;6.97;6.25;;;;;;;;;;5029930;28;20021;-75
2021/09/16 12:00:39;;;;;;;6.30;5.80;;;;;;;;;;5041681;28;20036;-73
2021/09/16 12:03:07;;;;;;;6.40;5.85;;;;;;;;;;5041619;28;20057;-72
2021/09/16 12:05:36;;;;;;;6.22;5.63;;;;;;;;;;5040468;28;20025;-72
2021/09/16 12:08:03;;;;;;;6.30;5.70;;;;;;;;;;5041801;28;20036;-72
2021/09/16 12:10:40;;;;;;;7.25;5.80;;;;;;;;;;5041935;28;20040;-73
2021/09/16 12:13:06;;;;;;;6.03;5.53;;;;;;;;;;5040391;28;20731;-73
2021/09/16 12:15:34;;;;;;;6.65;5.82;;;;;;;;;;5032909;28;20030;-73
2021/09/16 12:18:00;;;;;;;5.95;5.45;;;;;;;;;;5021357;28;20062;-72
2021/09/16 12:20:27;;;;;;;6.22;5.57;;;;;;;;;;5003926;28;20481;-72
2021/09/16 12:22:53;;;;;;;6.65;6.05;;;;;;;;;;5021623;28;20025;-73
2021/09/16 12:25:19;;;;;;;6.85;5.90;;;;;;;;;;5021306;28;20025;-73
2021/09/16 12:28:01;;;;;;;5.95;5.32;;;;;;;;;;5002155;28;20045;-73
2021/09/16 12:30:27;;;;;;;6.15;5.55;;;;;;;;;;5021230;28;20064;-72
2021/09/16 12:32:53;;;;;;;5.85;5.35;;;;;;;;;;5021377;28;20029;-76
2021/09/16 12:35:19;;;;;;;6.70;5.93;;;;;;;;;;5021316;28;20040;-71
2021/09/16 12:37:46;;;;;;;6.28;5.75;;;;;;;;;;5022082;28;20602;-78
2021/09/16 12:40:32;;;;;;;6.63;6.03;;;;;;;;;;5024119;28;20033;-71
2021/09/16 12:43:05;;;;;;;7.60;5.85;;;;;;;;;;5004365;28;20033;-73
2021/09/16 12:45:31;;;;;;;9.38;5.60;;;;;;;;;;5020977;28;20049;-73
2021/09/16 12:47:58;;;;;;;7.15;6.45;;;;;;;;;;5021253;28;20088;-73
2021/09/16 12:50:25;;;;;;;7.45;6.63;;;;;;;;;;5018986;28;20029;-73
2021/09/16 12:52:52;;;;;;;10.05;7.25;;;;;;;;;;5010839;28;20129;-71
2021/09/16 12:55:18;;;;;;;7.35;6.60;;;;;;;;;;5010551;28;20042;-73
2021/09/16 12:57:45;;;;;;;8.27;6.03;;;;;;;;;;5009668;28;20371;-80
2021/09/16 13:00:24;;;;;;;7.18;6.57;;;;;;;;;;5001081;28;20022;-78
2021/09/16 13:02:52;;;;;;;6.60;6.00;;;;;;;;;;5019260;28;20037;-79
2021/09/16 13:05:20;;;;;;;7.85;6.05;;;;;;;;;;5018889;28;20454;-81
2021/09/16 13:08:07;;;;;;;6.45;5.70;;;;;;;;;;5020022;28;20041;-77
2021/09/16 13:10:45;;;;;;;6.70;6.00;;;;;;;;;;5004265;28;20049;-72
2021/09/16 13:13:13;;;;;;;6.68;6.07;;;;;;;;;;5020192;28;20033;-74
2021/09/16 13:15:42;;;;;;;6.82;6.22;;;;;;;;;;5020145;28;20026;-75
2021/09/16 13:18:08;;;;;;;6.50;5.88;;;;;;;;;;5019211;28;20022;-73
2021/09/16 13:20:36;;;;;;;6.43;5.82;;;;;;;;;;5020073;28;20033;-73
2021/09/16 13:23:03;;;;;;;6.65;6.03;;;;;;;;;;5020147;28;20029;-81
2021/09/16 13:25:30;;;;;;;7.13;6.50;;;;;;;;;;5018234;28;20584;-80
2021/09/16 13:27:56;;;;;;;7.15;6.55;;;;;;;;;;5020301;28;20041;-72
2021/09/16 13:30:22;;;;;;;7.18;6.30;;;;;;;;;;5019260;28;20036;-72
2021/09/16 13:32:49;;;;;;;6.45;5.85;;;;;;;;;;5000520;28;20472;-79
2021/09/16 13:35:16;;;;;;;6.68;6.07;;;;;;;;;;5019692;28;20026;-73
2021/09/16 13:37:43;;;;;;;6.75;6.00;;;;;;;;;;5020629;28;20049;-81
2021/09/16 13:40:10;;;;;;;6.32;5.63;;;;;;;;;;5016376;28;20022;-78
2021/09/16 13:42:36;;;;;;;8.27;6.18;;;;;;;;;;5008435;28;20033;-72
2021/09/16 13:45:03;;;;;;;6.57;5.88;;;;;;;;;;5014431;28;20041;-80
2021/09/16 13:47:30;;;;;;;7.57;6.65;;;;;;;;;;5020325;28;20029;-81
2021/09/16 13:50:00;;;;;;;6.40;5.90;;;;;;;;;;5018907;28;20022;-81
2021/09/16 13:52:28;;;;;;;6.50;5.90;;;;;;;;;;5020771;28;20095;-76
2021/09/16 13:54:55;;;;;;;6.68;6.07;;;;;;;;;;5024207;28;20101;-81
2021/09/16 13:57:21;;;;;;;7.80;6.10;;;;;;;;;;5023950;28;20060;-80
2021/09/16 13:59:47;;;;;;;6.70;6.10;;;;;;;;;;5022491;28;20603;-73
2021/09/16 14:02:13;;;;;;;6.60;6.00;;;;;;;;;;5023927;28;20029;-73
2021/09/16 14:04:40;;;;;;;6.57;5.93;;;;;;;;;;5023628;28;20033;-72
2021/09/16 14:07:06;;;;;;;6.90;6.20;;;;;;;;;;5024008;28;20693;-76
2021/09/16 14:09:32;;;;;;;6.70;6.00;;;;;;;;;;5023549;28;20036;-72
2021/09/16 14:11:59;;;;;;;6.75;5.45;;;;;;;;;;5005716;28;20032;-73
2021/09/16 14:14:25;;;;;;;6.57;6.03;;;;;;;;;;5022323;28;20033;-81
2021/09/16 14:16:51;;;;;;;6.57;6.00;;;;;;;;;;4996632;28;20112;-78
2021/09/16 14:19:17;;;;;;;6.75;5.97;;;;;;;;;;5035225;28;20052;-76
2021/09/16 14:21:44;;;;;;;6.10;5.60;;;;;;;;;;5028559;28;20080;-83
2021/09/16 14:24:10;;;;;;;7.70;6.72;;;;;;;;;;5020227;28;20677;-77
2021/09/16 14:26:37;;;;;;;10.57;6.53;;;;;;;;;;5041438;28;20087;-74
2021/09/16 14:29:04;;;;;;;8.60;6.90;;;;;;;;;;5023807;28;20512;-76
2021/09/16 14:31:30;;;;;;;11.38;7.28;;;;;;;;;;4992158;28;20601;-75
2021/09/16 14:33:56;;;;;;;7.22;6.45;;;;;;;;;;4991618;28;20100;-79
2021/09/16 14:36:23;;;;;;;7.50;6.43;;;;;;;;;;5003970;28;20018;-76
2021/09/16 14:38:50;;;;;;;12.93;6.70;;;;;;;;;;5021992;28;20409;-76
2021/09/16 14:41:17;;;;;;;8.32;6.50;;;;;;;;;;5021454;28;20022;-74